createdAt,value
2018-09-11T00:02:01.861Z,99.90
2018-09-11T00:04:29.999Z,99.90
2018-09-11T00:06:58.107Z,99.90
2018-09-11T00:09:26.224Z,99.90
2018-09-11T00:11:54.389Z,99.90
2018-09-11T00:14:22.538Z,99.90
2018-09-11T00:16:50.651Z,99.90
2018-09-11T00:19:18.731Z,99.90
2018-09-11T00:21:46.855Z,99.90
2018-09-11T00:24:14.941Z,99.90
2018-09-11T00:26:43.058Z,99.90
2018-09-11T00:29:11.131Z,99.90
2018-09-11T00:31:39.270Z,99.90
2018-09-11T00:34:08.096Z,99.90
2018-09-11T00:36:36.271Z,99.90
2018-09-11T00:39:05.446Z,99.90
2018-09-11T00:41:33.589Z,99.90
2018-09-11T00:44:01.751Z,99.90
2018-09-11T00:46:29.950Z,99.90
2018-09-11T00:48:58.085Z,99.90
2018-09-11T00:51:26.202Z,99.90
2018-09-11T00:53:54.306Z,99.90
2018-09-11T00:56:22.444Z,99.90
2018-09-11T00:58:50.747Z,99.90
2018-09-11T01:01:18.875Z,99.90
2018-09-11T01:03:46.971Z,99.90
2018-09-11T01:06:15.127Z,99.90
2018-09-11T01:08:43.206Z,99.90
2018-09-11T01:11:11.290Z,99.90
2018-09-11T01:13:39.412Z,99.90
2018-09-11T01:16:08.803Z,99.90
2018-09-11T01:18:36.950Z,99.90
2018-09-11T01:21:05.101Z,99.90
2018-09-11T01:23:33.196Z,99.90
2018-09-11T01:26:01.354Z,99.90
2018-09-11T01:28:29.442Z,99.90
2018-09-11T01:30:57.561Z,99.90
2018-09-11T01:33:25.677Z,99.90
2018-09-11T01:35:53.865Z,99.90
2018-09-11T01:38:21.950Z,99.90
2018-09-11T01:40:50.138Z,99.90
2018-09-11T01:43:18.237Z,99.90
2018-09-11T01:45:46.518Z,99.90
2018-09-11T01:48:14.652Z,99.90
2018-09-11T01:50:42.778Z,99.90
2018-09-11T01:53:10.853Z,99.90
2018-09-11T01:55:38.924Z,99.90
2018-09-11T01:58:07.048Z,99.90
2018-09-11T02:00:35.129Z,99.90
2018-09-11T02:03:03.372Z,99.90
2018-09-11T02:05:31.475Z,99.90
2018-09-11T02:07:59.587Z,99.90
2018-09-11T02:10:27.766Z,99.90
2018-09-11T02:12:55.896Z,99.90
2018-09-11T02:15:24.075Z,99.90
2018-09-11T02:17:52.280Z,99.90
2018-09-11T02:20:20.463Z,99.90
2018-09-11T02:22:48.588Z,99.90
2018-09-11T02:25:16.648Z,99.90
2018-09-11T02:27:44.857Z,99.90
2018-09-11T02:30:13.006Z,99.90
2018-09-11T02:32:41.076Z,99.90
2018-09-11T02:35:09.279Z,99.90
2018-09-11T02:37:37.344Z,99.90
2018-09-11T02:40:05.572Z,99.90
2018-09-11T02:42:33.696Z,99.90
2018-09-11T02:45:01.796Z,99.90
2018-09-11T02:47:29.879Z,99.90
2018-09-11T02:49:57.982Z,99.90
2018-09-11T02:52:26.101Z,99.90
2018-09-11T02:54:54.295Z,99.90
2018-09-11T02:57:22.381Z,99.90
2018-09-11T02:59:50.547Z,99.90
2018-09-11T03:02:18.671Z,99.90
2018-09-11T03:04:46.792Z,99.90
2018-09-11T03:07:14.925Z,99.90
2018-09-11T03:09:43.037Z,99.90
2018-09-11T03:12:11.313Z,99.90
2018-09-11T03:14:39.391Z,99.90
2018-09-11T03:17:07.655Z,99.90
2018-09-11T03:19:35.805Z,99.90
2018-09-11T03:22:04.661Z,99.90
2018-09-11T03:24:32.793Z,99.90
2018-09-11T03:27:00.946Z,99.90
2018-09-11T03:29:29.076Z,99.90
2018-09-11T03:31:57.192Z,99.90
2018-09-11T03:34:25.318Z,99.90
2018-09-11T03:36:53.418Z,99.90
2018-09-11T03:39:21.539Z,99.90
2018-09-11T03:41:49.693Z,99.90
2018-09-11T03:44:17.909Z,99.90
2018-09-11T03:46:45.969Z,99.90
2018-09-11T03:49:14.060Z,99.90
2018-09-11T03:51:42.173Z,99.90
2018-09-11T03:54:10.291Z,99.90
2018-09-11T03:56:38.389Z,99.90
2018-09-11T03:59:06.528Z,99.90
2018-09-11T04:01:34.616Z,99.90
2018-09-11T04:04:02.747Z,99.90
2018-09-11T04:06:30.834Z,99.90
2018-09-11T04:08:58.989Z,99.90
2018-09-11T04:11:27.064Z,99.90
2018-09-11T04:13:55.183Z,99.90
2018-09-11T04:16:23.328Z,99.90
2018-09-11T04:18:51.472Z,99.90
2018-09-11T04:21:19.630Z,99.90
2018-09-11T04:23:47.850Z,99.90
2018-09-11T04:26:16.116Z,99.90
2018-09-11T04:28:44.313Z,99.90
2018-09-11T04:31:12.526Z,99.90
2018-09-11T04:33:40.701Z,99.90
2018-09-11T04:36:09.026Z,99.90
2018-09-11T04:38:37.346Z,99.90
2018-09-11T04:41:06.027Z,99.90
2018-09-11T04:43:34.193Z,99.90
2018-09-11T04:46:02.335Z,99.90
2018-09-11T04:48:30.587Z,99.90
2018-09-11T04:50:58.928Z,99.90
2018-09-11T04:53:27.119Z,99.90
2018-09-11T04:55:55.268Z,99.90
2018-09-11T04:58:23.405Z,99.90
2018-09-11T05:00:51.739Z,99.90
2018-09-11T05:03:19.879Z,99.90
2018-09-11T05:05:48.058Z,99.90
2018-09-11T05:08:16.175Z,99.90
2018-09-11T05:10:44.522Z,99.90
2018-09-11T05:13:12.704Z,99.90
2018-09-11T05:15:40.783Z,99.90
2018-09-11T05:18:08.954Z,99.90
2018-09-11T05:20:37.146Z,99.90
2018-09-11T05:23:05.435Z,99.90
2018-09-11T05:25:33.483Z,99.90
2018-09-11T05:28:01.612Z,99.90
2018-09-11T05:30:29.776Z,99.90
2018-09-11T05:32:58.847Z,99.90
2018-09-11T05:35:26.917Z,99.90
2018-09-11T05:37:54.984Z,99.90
2018-09-11T05:40:23.113Z,99.90
2018-09-11T05:42:51.207Z,99.90
2018-09-11T05:45:19.273Z,99.90
2018-09-11T05:47:47.568Z,99.90
2018-09-11T05:50:15.753Z,99.90
2018-09-11T05:52:43.823Z,99.90
2018-09-11T05:55:11.876Z,99.90
2018-09-11T05:57:39.914Z,99.90
2018-09-11T06:00:08.082Z,99.90
2018-09-11T06:02:36.148Z,99.90
2018-09-11T06:05:04.629Z,99.90
2018-09-11T06:07:32.708Z,99.90
2018-09-11T06:10:00.767Z,99.90
2018-09-11T06:12:28.822Z,99.90
2018-09-11T06:14:56.954Z,99.90
2018-09-11T06:17:25.220Z,99.90
2018-09-11T06:19:54.024Z,99.90
2018-09-11T06:22:22.172Z,99.90
2018-09-11T06:24:50.317Z,99.90
2018-09-11T06:27:18.412Z,99.90
2018-09-11T06:29:46.563Z,99.90
2018-09-11T06:32:14.620Z,99.90
2018-09-11T06:34:42.720Z,99.90
2018-09-11T06:37:10.780Z,99.90
2018-09-11T06:39:38.837Z,99.90
2018-09-11T06:42:06.616Z,99.90
2018-09-11T06:44:34.737Z,99.90
2018-09-11T06:47:02.849Z,99.90
2018-09-11T06:49:30.876Z,99.90
2018-09-11T06:51:58.975Z,99.90
2018-09-11T06:54:26.999Z,99.90
2018-09-11T06:56:55.045Z,99.90
2018-09-11T06:59:23.124Z,99.90
2018-09-11T07:01:51.274Z,99.90
2018-09-11T07:04:19.328Z,99.90
2018-09-11T07:06:47.450Z,99.90
2018-09-11T07:09:15.523Z,99.90
2018-09-11T07:11:43.621Z,99.90
2018-09-11T07:14:11.780Z,99.90
2018-09-11T07:16:39.859Z,99.90
2018-09-11T07:19:07.959Z,99.90
2018-09-11T07:21:36.024Z,99.90
2018-09-11T07:24:04.095Z,99.90
2018-09-11T07:26:32.202Z,99.90
2018-09-11T07:29:00.451Z,99.90
2018-09-11T07:31:28.539Z,99.90
2018-09-11T07:33:56.576Z,99.90
2018-09-11T07:36:24.648Z,99.90
2018-09-11T07:38:52.732Z,99.90
2018-09-11T07:41:20.787Z,99.90
2018-09-11T07:43:48.876Z,99.90
2018-09-11T07:46:16.986Z,99.90
2018-09-11T07:48:45.550Z,99.90
2018-09-11T07:51:13.666Z,99.90
2018-09-11T07:53:41.729Z,99.90
2018-09-11T07:56:09.802Z,99.90
2018-09-11T07:58:37.852Z,99.90
2018-09-11T08:01:05.999Z,99.90
2018-09-11T08:03:34.079Z,99.90
2018-09-11T08:06:02.135Z,99.90
2018-09-11T08:08:30.544Z,99.90
2018-09-11T08:10:58.583Z,99.90
2018-09-11T08:13:26.714Z,99.90
2018-09-11T08:15:54.800Z,99.90
2018-09-11T08:18:22.892Z,99.90
2018-09-11T08:20:51.058Z,99.90
2018-09-11T08:23:19.162Z,99.90
2018-09-11T08:25:47.270Z,99.90
2018-09-11T08:28:15.376Z,99.90
2018-09-11T08:30:43.444Z,99.90
2018-09-11T08:33:11.516Z,99.90
2018-09-11T08:35:39.730Z,99.90
2018-09-11T08:38:07.841Z,99.90
2018-09-11T08:40:35.926Z,99.90
2018-09-11T08:43:03.987Z,99.90
2018-09-11T08:45:32.069Z,99.90
2018-09-11T08:48:00.140Z,99.90
2018-09-11T08:50:28.252Z,99.90
2018-09-11T08:52:56.420Z,99.90
2018-09-11T08:55:24.469Z,99.90
2018-09-11T08:57:52.528Z,97.50
2018-09-11T09:00:20.597Z,98.80
2018-09-11T09:02:49.340Z,99.10
2018-09-11T09:05:17.471Z,98.60
2018-09-11T09:07:45.621Z,97.40
2018-09-11T09:10:13.755Z,93.60
2018-09-11T09:12:41.809Z,89.00
2018-09-11T09:15:09.896Z,90.00
2018-09-11T09:17:37.986Z,87.60
2018-09-11T09:20:06.121Z,89.90
2018-09-11T09:22:34.211Z,90.40
2018-09-11T09:25:02.309Z,87.80
2018-09-11T09:27:30.432Z,79.60
2018-09-11T09:29:58.559Z,81.20
2018-09-11T09:32:26.642Z,80.90
2018-09-11T09:34:55.858Z,79.90
2018-09-11T09:37:24.029Z,79.50
2018-09-11T09:39:52.077Z,73.60
2018-09-11T09:42:20.151Z,72.20
2018-09-11T09:44:48.232Z,70.80
2018-09-11T09:47:16.345Z,69.60
2018-09-11T09:49:44.407Z,66.90
2018-09-11T09:52:12.463Z,70.00
2018-09-11T09:54:40.551Z,73.20
2018-09-11T09:57:08.681Z,73.00
2018-09-11T09:59:36.776Z,67.00
2018-09-11T10:02:09.464Z,60.70
2018-09-11T10:04:37.702Z,61.30
2018-09-11T10:07:05.804Z,68.90
2018-09-11T10:09:33.884Z,72.40
2018-09-11T10:12:02.028Z,68.00
2018-09-11T10:14:30.120Z,65.60
2018-09-11T10:16:58.218Z,64.80
2018-09-11T10:19:26.378Z,63.30
2018-09-11T10:21:54.459Z,64.40
2018-09-11T10:24:22.665Z,63.60
2018-09-11T10:26:50.768Z,63.70
2018-09-11T10:29:18.854Z,57.70
2018-09-11T10:31:46.924Z,56.40
2018-09-11T10:34:15.040Z,56.20
2018-09-11T10:36:43.275Z,59.70
2018-09-11T10:39:11.383Z,56.10
2018-09-11T10:41:39.463Z,57.80
2018-09-11T10:44:07.526Z,55.30
2018-09-11T10:46:35.604Z,58.70
2018-09-11T10:49:03.719Z,56.90
2018-09-11T10:51:31.896Z,55.00
2018-09-11T10:53:59.998Z,54.40
2018-09-11T10:56:28.236Z,55.20
2018-09-11T10:58:56.332Z,55.50
2018-09-11T11:01:24.377Z,52.00
2018-09-11T11:03:52.560Z,52.10
2018-09-11T11:06:20.637Z,50.60
2018-09-11T11:08:48.758Z,51.40
2018-09-11T11:11:16.831Z,51.80
2018-09-11T11:13:44.938Z,50.50
2018-09-11T11:16:12.990Z,48.40
2018-09-11T11:18:41.082Z,48.40
2018-09-11T11:21:09.155Z,44.20
2018-09-11T11:23:37.201Z,44.80
2018-09-11T11:26:05.427Z,41.00
2018-09-11T11:28:34.377Z,38.90
2018-09-11T11:31:03.649Z,35.70
2018-09-11T11:33:31.716Z,37.40
2018-09-11T11:35:59.875Z,39.40
2018-09-11T11:38:28.036Z,36.60
2018-09-11T11:40:56.189Z,35.60
2018-09-11T11:43:24.796Z,37.50
2018-09-11T11:45:53.641Z,37.70
2018-09-11T11:48:22.496Z,36.30
2018-09-11T11:50:50.533Z,36.60
2018-09-11T11:53:18.717Z,37.50
2018-09-11T11:55:46.844Z,37.00
2018-09-11T11:58:14.941Z,37.40
2018-09-11T12:00:42.988Z,37.50
2018-09-11T12:03:11.091Z,33.50
2018-09-11T12:05:39.254Z,33.90
2018-09-11T12:08:08.101Z,34.80
2018-09-11T12:10:36.209Z,35.50
2018-09-11T12:13:04.308Z,35.50
2018-09-11T12:15:32.396Z,33.20
2018-09-11T12:18:00.505Z,35.40
2018-09-11T12:20:28.626Z,34.40
2018-09-11T12:22:56.755Z,33.70
2018-09-11T12:25:24.883Z,33.50
2018-09-11T12:27:52.946Z,34.40
2018-09-11T12:30:21.108Z,33.30
2018-09-11T12:32:49.271Z,35.10
2018-09-11T12:35:17.426Z,34.80
2018-09-11T12:37:45.573Z,34.50
2018-09-11T12:40:13.663Z,33.90
2018-09-11T12:42:41.878Z,35.30
2018-09-11T12:45:09.998Z,34.70
2018-09-11T12:47:38.641Z,36.50
2018-09-11T12:50:06.202Z,37.00
2018-09-11T12:52:34.383Z,36.20
2018-09-11T12:55:02.417Z,36.60
2018-09-11T12:57:30.494Z,35.90
2018-09-11T12:59:58.541Z,36.40
2018-09-11T13:02:26.650Z,36.00
2018-09-11T13:04:54.726Z,35.40
2018-09-11T13:07:22.794Z,36.60
2018-09-11T13:09:50.875Z,37.10
2018-09-11T13:12:19.114Z,38.20
2018-09-11T13:14:47.197Z,37.50
2018-09-11T13:17:15.284Z,37.90
2018-09-11T13:19:43.335Z,38.10
2018-09-11T13:22:11.606Z,38.50
2018-09-11T13:24:39.734Z,38.90
2018-09-11T13:27:08.200Z,36.90
2018-09-11T13:29:36.364Z,36.20
2018-09-11T13:32:04.475Z,34.70
2018-09-11T13:34:32.628Z,36.20
2018-09-11T13:37:00.711Z,35.70
2018-09-11T13:39:28.760Z,36.60
2018-09-11T13:41:56.912Z,37.00
2018-09-11T13:44:24.942Z,38.30
2018-09-11T13:46:53.089Z,37.30
2018-09-11T13:49:21.126Z,39.60
2018-09-11T13:51:49.218Z,37.80
2018-09-11T13:54:17.288Z,39.00
2018-09-11T13:56:45.442Z,36.80
2018-09-11T13:59:13.506Z,37.70
2018-09-11T14:01:41.557Z,38.60
2018-09-11T14:04:09.625Z,40.10
2018-09-11T14:06:37.773Z,40.60
2018-09-11T14:09:09.112Z,39.50
2018-09-11T14:11:37.269Z,39.90
2018-09-11T14:14:05.462Z,39.30
2018-09-11T14:16:33.845Z,40.00
2018-09-11T14:19:01.951Z,39.90
2018-09-11T14:21:30.056Z,40.90
2018-09-11T14:23:58.169Z,41.10
2018-09-11T14:26:26.275Z,41.20
2018-09-11T14:28:54.363Z,43.00
2018-09-11T14:31:22.467Z,44.00
2018-09-11T14:33:50.636Z,45.00
2018-09-11T14:36:18.839Z,46.10
2018-09-11T14:38:46.959Z,45.60
2018-09-11T14:41:15.065Z,46.50
2018-09-11T14:43:43.182Z,48.30
2018-09-11T14:46:11.307Z,47.80
2018-09-11T14:48:39.366Z,47.70
2018-09-11T14:51:07.502Z,49.00
2018-09-11T14:53:35.576Z,48.50
2018-09-11T14:56:03.985Z,50.00
2018-09-11T14:58:32.763Z,48.90
2018-09-11T15:01:00.853Z,50.50
2018-09-11T15:03:28.929Z,50.00
2018-09-11T15:05:57.321Z,49.80
2018-09-11T15:08:25.510Z,51.80
2018-09-11T15:10:53.687Z,49.80
2018-09-11T15:13:21.823Z,50.30
2018-09-11T15:15:50.054Z,50.30
2018-09-11T15:18:18.160Z,51.60
2018-09-11T15:20:46.364Z,51.30
2018-09-11T15:23:14.528Z,53.50
2018-09-11T15:25:42.659Z,53.60
2018-09-11T15:28:10.837Z,55.60
2018-09-11T15:30:38.972Z,55.80
2018-09-11T15:33:07.489Z,59.40
2018-09-11T15:35:36.297Z,60.20
2018-09-11T15:38:04.370Z,63.50
2018-09-11T15:40:32.485Z,62.80
2018-09-11T15:43:00.589Z,66.50
2018-09-11T15:45:28.671Z,66.20
2018-09-11T15:47:56.788Z,66.70
2018-09-11T15:50:24.885Z,65.30
2018-09-11T15:52:52.942Z,66.40
2018-09-11T15:55:21.021Z,65.20
2018-09-11T15:57:49.112Z,66.00
2018-09-11T16:00:17.221Z,66.50
2018-09-11T16:02:46.612Z,67.60
2018-09-11T16:05:14.752Z,69.70
2018-09-11T16:07:42.835Z,70.00
2018-09-11T16:10:10.941Z,71.10
2018-09-11T16:12:38.999Z,74.10
2018-09-11T16:15:07.281Z,72.80
2018-09-11T16:17:35.324Z,74.70
2018-09-11T16:20:03.525Z,74.00
2018-09-11T16:22:31.649Z,75.00
2018-09-11T16:24:59.791Z,76.90
2018-09-11T16:27:27.976Z,76.00
2018-09-11T16:29:56.862Z,77.60
2018-09-11T16:32:24.870Z,76.10
2018-09-11T16:34:52.966Z,79.50
2018-09-11T16:37:21.071Z,81.70
2018-09-11T16:39:49.562Z,83.10
2018-09-11T16:42:17.692Z,81.90
2018-09-11T16:44:45.810Z,83.00
2018-09-11T16:47:13.903Z,84.10
2018-09-11T16:49:42.069Z,84.30
2018-09-11T16:52:10.322Z,86.00
2018-09-11T16:54:38.450Z,88.20
2018-09-11T16:57:06.562Z,89.10
2018-09-11T16:59:34.713Z,90.20
2018-09-11T17:02:02.888Z,90.50
2018-09-11T17:04:30.971Z,91.40
2018-09-11T17:06:59.021Z,91.70
2018-09-11T17:09:27.094Z,92.70
2018-09-11T17:11:55.149Z,93.60
2018-09-11T17:14:23.267Z,94.70
2018-09-11T17:16:51.567Z,94.70
2018-09-11T17:19:19.642Z,95.60
2018-09-11T17:21:47.885Z,96.70
2018-09-11T17:24:16.001Z,97.90
2018-09-11T17:26:44.173Z,99.60
2018-09-11T17:29:12.316Z,99.90
2018-09-11T17:31:40.462Z,99.90
2018-09-11T17:34:08.576Z,99.90
2018-09-11T17:36:36.705Z,99.90
2018-09-11T17:39:07.994Z,99.90
2018-09-11T17:41:36.090Z,99.90
2018-09-11T17:44:04.176Z,99.90
2018-09-11T17:46:32.389Z,99.90
2018-09-11T17:49:00.535Z,99.90
2018-09-11T17:51:28.502Z,99.90
2018-09-11T17:53:56.657Z,99.90
2018-09-11T17:56:24.723Z,99.90
2018-09-11T17:58:52.819Z,99.90
2018-09-11T18:01:20.932Z,99.90
2018-09-11T18:03:49.037Z,99.90
2018-09-11T18:06:17.141Z,99.90
2018-09-11T18:08:45.248Z,99.90
2018-09-11T18:11:13.370Z,99.90
2018-09-11T18:13:42.246Z,99.90
2018-09-11T18:16:10.366Z,99.90
2018-09-11T18:18:38.509Z,99.90
2018-09-11T18:21:06.660Z,99.90
2018-09-11T18:23:34.943Z,99.90
2018-09-11T18:26:03.209Z,99.90
2018-09-11T18:28:31.314Z,99.90
2018-09-11T18:30:59.723Z,99.90
2018-09-11T18:33:27.816Z,99.90
2018-09-11T18:35:56.035Z,99.90
2018-09-11T18:38:24.213Z,99.90
2018-09-11T18:40:52.399Z,99.90
2018-09-11T18:43:20.526Z,99.90
2018-09-11T18:45:48.642Z,99.90
2018-09-11T18:48:16.734Z,99.90
2018-09-11T18:50:44.787Z,99.90
2018-09-11T18:53:12.852Z,99.90
2018-09-11T18:55:40.966Z,99.90
2018-09-11T18:58:09.175Z,99.90
2018-09-11T19:00:37.260Z,99.90
2018-09-11T19:03:05.431Z,99.90
2018-09-11T19:05:33.571Z,99.90
2018-09-11T19:08:01.881Z,99.90
2018-09-11T19:10:30.454Z,99.90
2018-09-11T19:12:58.643Z,99.90
2018-09-11T19:15:26.767Z,99.90
2018-09-11T19:17:54.867Z,99.90
2018-09-11T19:20:24.261Z,99.90
2018-09-11T19:22:52.513Z,99.90
2018-09-11T19:25:20.658Z,99.90
2018-09-11T19:27:49.009Z,99.90
2018-09-11T19:30:17.097Z,99.90
2018-09-11T19:32:45.212Z,99.90
2018-09-11T19:35:13.364Z,99.90
2018-09-11T19:37:41.567Z,99.90
2018-09-11T19:40:09.739Z,99.90
2018-09-11T19:42:37.862Z,99.90
2018-09-11T19:45:06.271Z,99.90
2018-09-11T19:47:34.452Z,99.90
2018-09-11T19:50:02.646Z,99.90
2018-09-11T19:52:30.713Z,99.90
2018-09-11T19:54:58.818Z,99.90
2018-09-11T19:57:27.190Z,99.90
2018-09-11T19:59:55.347Z,99.90
2018-09-11T20:02:25.186Z,99.90
2018-09-11T20:04:53.352Z,99.90
2018-09-11T20:07:21.627Z,99.90
2018-09-11T20:09:49.691Z,99.90
2018-09-11T20:12:17.913Z,99.90
2018-09-11T20:14:46.056Z,99.90
2018-09-11T20:17:14.192Z,99.90
2018-09-11T20:19:42.292Z,99.90
2018-09-11T20:22:11.377Z,99.90
2018-09-11T20:24:39.491Z,99.90
2018-09-11T20:27:07.998Z,99.90
2018-09-11T20:29:36.133Z,99.90
2018-09-11T20:32:04.269Z,99.90
2018-09-11T20:34:32.482Z,99.90
2018-09-11T20:37:00.579Z,99.90
2018-09-11T20:39:28.713Z,99.90
2018-09-11T20:41:56.846Z,99.90
2018-09-11T20:44:24.932Z,99.90
2018-09-11T20:46:53.025Z,99.90
2018-09-11T20:49:21.129Z,99.90
2018-09-11T20:51:49.278Z,99.90
2018-09-11T20:54:17.403Z,99.90
2018-09-11T20:56:45.572Z,99.90
2018-09-11T20:59:13.667Z,99.90
2018-09-11T21:01:41.715Z,99.90
2018-09-11T21:04:09.833Z,99.90
2018-09-11T21:06:37.908Z,99.90
2018-09-11T21:09:07.394Z,99.90
2018-09-11T21:11:35.743Z,99.90
2018-09-11T21:14:04.724Z,99.90
2018-09-11T21:16:33.253Z,99.90
2018-09-11T21:19:01.420Z,99.90
2018-09-11T21:21:29.568Z,99.90
2018-09-11T21:23:57.664Z,99.90
2018-09-11T21:26:25.784Z,99.90
2018-09-11T21:28:53.914Z,99.90
2018-09-11T21:31:22.008Z,99.90
2018-09-11T21:33:50.076Z,99.90
2018-09-11T21:36:18.280Z,99.90
2018-09-11T21:38:46.424Z,99.90
2018-09-11T21:41:14.570Z,99.90
2018-09-11T21:43:42.662Z,99.90
2018-09-11T21:46:10.767Z,99.90
2018-09-11T21:48:39.138Z,99.90
2018-09-11T21:51:07.980Z,99.90
2018-09-11T21:53:36.119Z,99.90
2018-09-11T21:56:04.347Z,99.90
2018-09-11T21:58:32.732Z,99.90
2018-09-11T22:01:07.224Z,99.90
2018-09-11T22:03:35.305Z,99.90
2018-09-11T22:06:03.458Z,99.90
2018-09-11T22:08:31.658Z,99.90
2018-09-11T22:10:59.774Z,99.90
2018-09-11T22:13:28.094Z,99.90
2018-09-11T22:15:56.289Z,99.90
2018-09-11T22:18:24.399Z,99.90
2018-09-11T22:20:52.532Z,99.90
2018-09-11T22:23:20.712Z,99.90
2018-09-11T22:25:48.845Z,99.90
2018-09-11T22:28:16.918Z,99.90
2018-09-11T22:30:45.026Z,99.90
2018-09-11T22:33:13.177Z,99.90
2018-09-11T22:35:41.336Z,99.90
2018-09-11T22:38:09.522Z,99.90
2018-09-11T22:40:37.648Z,99.90
2018-09-11T22:43:06.183Z,99.90
2018-09-11T22:45:34.424Z,99.90
2018-09-11T22:48:02.523Z,99.90
2018-09-11T22:50:30.732Z,99.90
2018-09-11T22:52:58.821Z,99.90
2018-09-11T22:55:26.924Z,99.90
2018-09-11T22:57:55.040Z,99.90
2018-09-11T23:00:23.198Z,99.90
2018-09-11T23:02:51.253Z,99.90
2018-09-11T23:05:19.389Z,99.90
2018-09-11T23:07:47.531Z,99.90
2018-09-11T23:10:15.687Z,99.90
2018-09-11T23:12:43.806Z,99.90
2018-09-11T23:15:12.007Z,99.90
2018-09-11T23:17:40.173Z,99.90
2018-09-11T23:20:08.329Z,99.90
2018-09-11T23:22:36.457Z,99.90
2018-09-11T23:25:04.596Z,99.90
2018-09-11T23:27:32.689Z,99.90
2018-09-11T23:30:00.846Z,99.90
2018-09-11T23:32:28.970Z,99.90
2018-09-11T23:34:57.070Z,99.90
2018-09-11T23:37:25.183Z,99.90
2018-09-11T23:39:53.391Z,99.90
2018-09-11T23:42:21.534Z,99.90
2018-09-11T23:44:49.629Z,99.90
2018-09-11T23:47:17.789Z,99.90
2018-09-11T23:49:45.894Z,99.90
2018-09-11T23:52:14.008Z,99.90
2018-09-11T23:54:42.104Z,99.90
2018-09-11T23:57:10.164Z,99.90
2018-09-11T23:59:38.332Z,99.90
